Anahola, Hawaii
Current Conditions -  °F | °C
As of 2:33 AM on Thursday 23 Oct 2014 (Local Time) from PHLI Reporting Station
Broken Clouds Broken Clouds  
Wind Chill: 79°   Ceiling: 2300
Heat Index: 82°   Visibility: 10mi
Dew Point: 73°   Wind: 10mph
Humidity: 83%   Direction: 120°ESE
Pressure: 29.99"   Gusts: NA
Location:  22.14°N, 159.31°W
Report Text: PHLI 231233Z 12009KT 10SM FEW017 BKN023 BKN032 26/23 A2999 RMK AO2 P0001 $
Loading
Personal Weather Stations






























Interactive Weather Map
Tropical Storm Tracking
New forecast layout! Learn more

10-Day Weather Forecast

Advertisements
Track Severe Weather on mobile